createdAt,value
2022-12-15T00:02:17.101Z,-5.80
2022-12-15T00:05:02.261Z,-5.80
2022-12-15T00:07:47.812Z,-5.80
2022-12-15T00:10:33.207Z,-5.90
2022-12-15T00:13:18.524Z,-5.90
2022-12-15T00:16:05.452Z,-5.90
2022-12-15T00:18:50.885Z,-6.00
2022-12-15T00:21:36.211Z,-6.00
2022-12-15T00:24:21.663Z,-6.00
2022-12-15T00:27:06.909Z,-5.90
2022-12-15T00:29:52.321Z,-5.90
2022-12-15T00:32:37.480Z,-5.80
2022-12-15T00:35:23.036Z,-5.80
2022-12-15T00:38:08.419Z,-6.00
2022-12-15T00:40:35.031Z,-6.10
2022-12-15T00:43:01.792Z,-6.10
2022-12-15T00:45:48.411Z,-6.10
2022-12-15T00:48:15.215Z,-6.10
2022-12-15T00:50:53.825Z,-6.00
2022-12-15T00:53:40.787Z,-6.10
2022-12-15T00:56:26.425Z,-6.10
2022-12-15T00:59:12.341Z,-6.10
2022-12-15T01:01:57.958Z,-6.10
2022-12-15T01:04:43.354Z,-6.00
2022-12-15T01:07:28.798Z,-6.00
2022-12-15T01:10:14.233Z,-6.00
2022-12-15T01:12:59.595Z,-6.00
2022-12-15T01:15:45.079Z,-6.20
2022-12-15T01:18:30.330Z,-6.30
2022-12-15T01:21:01.926Z,-6.30
2022-12-15T01:23:29.427Z,-6.30
2022-12-15T01:25:56.342Z,-6.10
2022-12-15T01:28:23.931Z,-6.10
2022-12-15T01:30:51.293Z,-6.20
2022-12-15T01:33:19.534Z,-6.20
2022-12-15T01:35:58.486Z,-6.30
2022-12-15T01:38:26.354Z,-6.20
2022-12-15T01:41:01.775Z,-6.30
2022-12-15T01:43:34.871Z,-6.40
2022-12-15T01:46:09.747Z,-6.50
2022-12-15T01:48:57.678Z,-6.50
2022-12-15T01:51:42.636Z,-6.40
2022-12-15T01:54:20.859Z,-6.50
2022-12-15T01:56:52.570Z,-6.40
2022-12-15T01:59:28.809Z,-6.50
2022-12-15T02:01:55.492Z,-6.50
2022-12-15T02:04:23.673Z,-6.40
2022-12-15T02:06:50.595Z,-6.40
2022-12-15T02:09:18.666Z,-6.50
2022-12-15T02:12:00.754Z,-6.50
2022-12-15T02:14:47.373Z,-6.50
2022-12-15T02:17:38.642Z,-6.60
2022-12-15T02:20:28.674Z,-6.70
2022-12-15T02:23:33.294Z,-6.80
2022-12-15T02:26:47.865Z,-6.80
2022-12-15T02:29:33.262Z,-6.80
2022-12-15T02:32:10.202Z,-6.80
2022-12-15T02:34:47.376Z,-6.90
2022-12-15T02:37:18.095Z,-6.80
2022-12-15T02:39:44.787Z,-6.90
2022-12-15T02:42:11.637Z,-7.00
2022-12-15T02:44:44.512Z,-7.10
2022-12-15T02:47:18.880Z,-7.10
2022-12-15T02:49:57.321Z,-7.00
2022-12-15T02:52:57.837Z,-7.00
2022-12-15T02:55:56.821Z,-7.00
2022-12-15T02:58:48.286Z,-7.00
2022-12-15T03:01:36.087Z,-7.10
2022-12-15T03:04:06.261Z,-7.20
2022-12-15T03:06:32.869Z,-7.20
2022-12-15T03:08:59.563Z,-7.10
2022-12-15T03:11:26.308Z,-7.00
2022-12-15T03:13:54.249Z,-7.00
2022-12-15T03:16:21.498Z,-7.00
2022-12-15T03:18:48.210Z,-7.00
2022-12-15T03:21:14.796Z,-7.00
2022-12-15T03:23:41.469Z,-7.00
2022-12-15T03:26:08.138Z,-7.00
2022-12-15T03:28:34.851Z,-7.10
2022-12-15T03:31:01.455Z,-7.20
2022-12-15T03:33:28.542Z,-7.20
2022-12-15T03:35:55.748Z,-7.20
2022-12-15T03:38:22.433Z,-7.20
2022-12-15T03:40:49.066Z,-7.20
2022-12-15T03:43:15.628Z,-7.20
2022-12-15T03:45:42.244Z,-7.20
2022-12-15T03:48:08.986Z,-7.20
2022-12-15T03:50:41.590Z,-7.10
2022-12-15T03:53:08.254Z,-7.10
2022-12-15T03:55:35.244Z,-7.30
2022-12-15T03:58:02.716Z,-7.30
2022-12-15T04:00:29.407Z,-7.40
2022-12-15T04:02:56.414Z,-7.30
2022-12-15T04:05:27.059Z,-7.20
2022-12-15T04:07:55.182Z,-7.30
2022-12-15T04:10:25.258Z,-7.40
2022-12-15T04:13:11.756Z,-7.40
2022-12-15T04:15:39.994Z,-7.30
2022-12-15T04:18:10.063Z,-7.30
2022-12-15T04:20:46.545Z,-7.20
2022-12-15T04:23:16.929Z,-7.20
2022-12-15T04:26:02.105Z,-7.30
2022-12-15T04:28:47.359Z,-7.40
2022-12-15T04:31:39.743Z,-7.40
2022-12-15T04:34:29.253Z,-7.40
2022-12-15T04:37:14.795Z,-7.30
2022-12-15T04:40:03.736Z,-7.40
2022-12-15T04:42:51.258Z,-7.50
2022-12-15T04:45:40.022Z,-7.70
2022-12-15T04:48:25.990Z,-7.70
2022-12-15T04:51:11.385Z,-7.70
2022-12-15T04:53:56.858Z,-7.70
2022-12-15T04:56:42.440Z,-7.60
2022-12-15T04:59:27.708Z,-7.60
2022-12-15T05:02:13.269Z,-7.40
2022-12-15T05:04:58.288Z,-7.40
2022-12-15T05:07:44.286Z,-7.30
2022-12-15T05:10:29.756Z,-7.30
2022-12-15T05:13:25.957Z,-7.30
2022-12-15T05:16:11.327Z,-7.40
2022-12-15T05:18:56.717Z,-7.50
2022-12-15T05:21:42.224Z,-7.50
2022-12-15T05:24:27.477Z,-7.50
2022-12-15T05:27:12.868Z,-7.50
2022-12-15T05:29:58.116Z,-7.50
2022-12-15T05:32:24.745Z,-7.50
2022-12-15T05:34:51.282Z,-7.50
2022-12-15T05:37:17.913Z,-7.40
2022-12-15T05:39:44.565Z,-7.50
2022-12-15T05:42:11.228Z,-7.50
2022-12-15T05:44:37.889Z,-7.50
2022-12-15T05:47:04.822Z,-7.50
2022-12-15T05:49:31.625Z,-7.50
2022-12-15T05:51:58.302Z,-7.40
2022-12-15T05:54:25.396Z,-7.30
2022-12-15T05:56:52.025Z,-7.40
2022-12-15T05:59:21.612Z,-7.30
2022-12-15T06:01:48.293Z,-7.10
2022-12-15T06:04:15.048Z,-7.10
2022-12-15T06:06:42.213Z,-7.00
2022-12-15T06:09:09.725Z,-7.00
2022-12-15T06:11:37.408Z,-6.90
2022-12-15T06:14:04.211Z,-7.00
2022-12-15T06:16:31.339Z,-6.90
2022-12-15T06:19:00.044Z,-6.90
2022-12-15T06:21:30.572Z,-6.90
2022-12-15T06:23:58.339Z,-6.90
2022-12-15T06:26:27.460Z,-6.90
2022-12-15T06:28:57.451Z,-6.80
2022-12-15T06:31:25.744Z,-6.70
2022-12-15T06:34:00.942Z,-6.60
2022-12-15T06:36:28.548Z,-6.60
2022-12-15T06:38:58.357Z,-6.60
2022-12-15T06:41:24.942Z,-6.60
2022-12-15T06:43:53.491Z,-6.50
2022-12-15T06:46:20.539Z,-6.50
2022-12-15T06:48:47.695Z,-6.50
2022-12-15T06:51:17.458Z,-6.40
2022-12-15T06:53:55.186Z,-6.40
2022-12-15T06:56:33.065Z,-6.40
2022-12-15T06:59:01.559Z,-6.30
2022-12-15T07:01:28.449Z,-6.30
2022-12-15T07:03:55.869Z,-6.30
2022-12-15T07:06:23.053Z,-6.20
2022-12-15T07:08:52.447Z,-6.20
2022-12-15T07:11:20.899Z,-6.10
2022-12-15T07:13:51.717Z,-6.10
2022-12-15T07:16:19.450Z,-6.10
2022-12-15T07:18:46.130Z,-6.00
2022-12-15T07:23:59.138Z,-6.00
2022-12-15T07:26:26.960Z,-5.90
2022-12-15T07:28:54.507Z,-5.90
2022-12-15T07:31:22.076Z,-5.80
2022-12-15T07:36:32.865Z,-5.80
2022-12-15T07:39:01.162Z,-5.70
2022-12-15T07:41:28.577Z,-5.70
2022-12-15T07:43:55.403Z,-5.60
2022-12-15T07:46:22.201Z,-5.50
2022-12-15T07:48:54.857Z,-5.50
2022-12-15T07:51:21.641Z,-5.50
2022-12-15T07:53:50.036Z,-5.40
2022-12-15T07:56:17.871Z,-5.40
2022-12-15T07:58:44.651Z,-5.40
2022-12-15T08:01:12.820Z,-5.30
2022-12-15T08:03:40.784Z,-5.30
2022-12-15T08:06:10.375Z,-5.20
2022-12-15T08:08:37.548Z,-5.30
2022-12-15T08:11:09.324Z,-5.20
2022-12-15T08:16:23.589Z,-5.20
2022-12-15T08:18:50.382Z,-5.10
2022-12-15T08:21:25.527Z,-5.10
2022-12-15T08:23:52.151Z,-5.10
2022-12-15T08:26:21.468Z,-5.00
2022-12-15T08:28:50.481Z,-5.00
2022-12-15T08:31:20.924Z,-4.90
2022-12-15T08:33:48.256Z,-4.80
2022-12-15T08:36:17.108Z,-4.90
2022-12-15T08:38:45.489Z,-4.90
2022-12-15T08:41:15.954Z,-4.80
2022-12-15T08:43:48.254Z,-4.70
2022-12-15T08:46:18.870Z,-4.70
2022-12-15T08:48:45.752Z,-4.70
2022-12-15T08:51:12.403Z,-4.60
2022-12-15T08:53:39.096Z,-4.60
2022-12-15T08:56:08.423Z,-4.70
2022-12-15T08:58:35.128Z,-4.70
2022-12-15T09:01:04.366Z,-4.60
2022-12-15T09:03:31.604Z,-4.60
2022-12-15T09:06:05.143Z,-4.60
2022-12-15T09:08:32.389Z,-4.70
2022-12-15T09:10:59.854Z,-4.80
2022-12-15T09:13:27.222Z,-4.80
2022-12-15T09:16:13.506Z,-4.80
2022-12-15T09:18:43.699Z,-4.60
2022-12-15T09:21:11.190Z,-4.60
2022-12-15T09:23:38.247Z,-4.60
2022-12-15T09:26:10.813Z,-4.60
2022-12-15T09:28:38.268Z,-4.70
2022-12-15T09:31:07.018Z,-4.70
2022-12-15T09:33:34.435Z,-4.70
2022-12-15T09:36:01.864Z,-4.70
2022-12-15T09:38:28.479Z,-4.60
2022-12-15T09:40:55.921Z,-4.70
2022-12-15T09:43:37.908Z,-4.60
2022-12-15T09:46:23.360Z,-4.40
2022-12-15T09:48:52.486Z,-4.30
2022-12-15T09:51:19.519Z,-4.30
2022-12-15T09:53:55.769Z,-4.20
2022-12-15T09:56:31.717Z,-4.30
2022-12-15T09:59:09.804Z,-4.00
2022-12-15T10:02:06.844Z,-3.90
2022-12-15T10:04:42.690Z,-3.70
2022-12-15T10:07:34.636Z,-3.70
2022-12-15T10:10:11.432Z,-3.60
2022-12-15T10:12:53.219Z,-3.70
2022-12-15T10:15:28.497Z,-3.80
2022-12-15T10:18:23.332Z,-3.70
2022-12-15T10:20:53.955Z,-3.60
2022-12-15T10:23:21.383Z,-3.40
2022-12-15T10:25:59.750Z,-3.40
2022-12-15T10:28:39.287Z,-3.60
2022-12-15T10:31:20.193Z,-3.70
2022-12-15T10:34:07.221Z,-3.70
2022-12-15T10:36:33.924Z,-3.70
2022-12-15T10:39:00.532Z,-3.70
2022-12-15T10:41:31.580Z,-3.80
2022-12-15T10:43:58.307Z,-3.60
2022-12-15T10:46:30.489Z,-3.60
2022-12-15T10:49:23.463Z,-3.60
2022-12-15T10:54:35.046Z,-3.00
2022-12-15T10:57:17.264Z,-2.60
2022-12-15T10:59:43.989Z,-2.10
2022-12-15T11:02:27.449Z,-1.90
2022-12-15T11:05:26.688Z,-1.60
2022-12-15T11:08:15.045Z,-1.30
2022-12-15T11:11:12.957Z,-1.10
2022-12-15T11:13:40.494Z,-1.30
2022-12-15T11:16:16.129Z,-0.90
2022-12-15T11:18:48.702Z,-0.50
2022-12-15T11:21:36.898Z,-0.50
2022-12-15T11:24:15.767Z,-0.30
2022-12-15T11:27:24.222Z,-0.10
2022-12-15T11:30:27.068Z,-0.80
2022-12-15T11:33:00.557Z,-1.80
2022-12-15T11:36:09.995Z,-2.30
2022-12-15T11:38:59.990Z,-2.50
2022-12-15T11:41:43.724Z,-2.70
2022-12-15T11:44:13.282Z,-2.70
2022-12-15T11:46:47.212Z,-2.60
2022-12-15T11:49:40.762Z,-2.20
2022-12-15T11:52:15.400Z,-1.40
2022-12-15T11:54:47.116Z,-0.10
2022-12-15T11:57:53.294Z,0.90
2022-12-15T12:00:21.844Z,1.70
2022-12-15T12:03:13.924Z,2.10
2022-12-15T12:05:49.420Z,2.40
2022-12-15T12:08:33.356Z,2.60
2022-12-15T12:11:12.714Z,2.10
2022-12-15T12:17:05.730Z,1.80
2022-12-15T12:19:40.188Z,2.00
2022-12-15T12:22:19.429Z,1.80
2022-12-15T12:24:51.053Z,1.80
2022-12-15T12:27:39.589Z,1.20
2022-12-15T12:30:14.834Z,0.80
2022-12-15T12:33:17.496Z,1.20
2022-12-15T12:35:55.034Z,1.10
2022-12-15T12:38:32.294Z,1.40
2022-12-15T12:41:23.555Z,1.20
2022-12-15T12:43:58.282Z,1.10
2022-12-15T12:46:42.433Z,1.10
2022-12-15T12:49:32.174Z,0.90
2022-12-15T12:52:03.396Z,0.60
2022-12-15T12:54:35.908Z,0.70
2022-12-15T12:57:28.322Z,0.30
2022-12-15T13:00:13.828Z,0.70
2022-12-15T13:02:46.627Z,0.90
2022-12-15T13:05:26.391Z,0.60
2022-12-15T13:08:10.709Z,0.80
2022-12-15T13:10:39.665Z,1.00
2022-12-15T13:13:27.216Z,0.80
2022-12-15T13:16:22.747Z,1.30
2022-12-15T13:19:08.390Z,1.70
2022-12-15T13:21:44.298Z,0.90
2022-12-15T13:24:45.932Z,1.10
2022-12-15T13:27:17.508Z,1.00
2022-12-15T13:30:06.853Z,1.60
2022-12-15T13:32:36.640Z,2.00
2022-12-15T13:35:12.339Z,2.10
2022-12-15T13:37:59.138Z,2.40
2022-12-15T13:40:38.674Z,2.30
2022-12-15T13:43:05.284Z,2.30
2022-12-15T13:45:38.081Z,2.30
2022-12-15T13:48:34.729Z,2.10
2022-12-15T13:51:30.244Z,1.80
2022-12-15T13:54:01.841Z,1.60
2022-12-15T13:56:47.241Z,1.40
2022-12-15T13:59:33.544Z,0.90
2022-12-15T14:02:00.559Z,0.60
2022-12-15T14:04:27.660Z,0.50
2022-12-15T14:07:01.919Z,0.70
2022-12-15T14:09:32.687Z,0.90
2022-12-15T14:12:01.989Z,1.10
2022-12-15T14:14:33.230Z,1.20
2022-12-15T14:17:02.812Z,1.10
2022-12-15T14:19:41.024Z,0.90
2022-12-15T14:22:28.178Z,0.40
2022-12-15T14:25:02.498Z,0.70
2022-12-15T14:27:31.718Z,0.70
2022-12-15T14:30:12.278Z,0.60
2022-12-15T14:32:39.959Z,0.10
2022-12-15T14:35:12.458Z,-0.10
2022-12-15T14:37:39.628Z,-0.20
2022-12-15T14:40:07.184Z,0.00
2022-12-15T14:42:34.088Z,-0.10
2022-12-15T14:45:00.786Z,-0.10
2022-12-15T14:47:31.663Z,-0.10
2022-12-15T14:50:01.025Z,-0.30
2022-12-15T14:52:29.711Z,-0.70
2022-12-15T14:54:59.935Z,-1.40
2022-12-15T14:57:37.683Z,-2.00
2022-12-15T15:00:24.463Z,-2.40
2022-12-15T15:03:12.649Z,2.20
2022-12-15T15:03:18.313Z,-2.80
2022-12-15T15:05:49.682Z,-3.00
2022-12-15T15:08:33.215Z,-3.10
2022-12-15T15:11:19.282Z,-3.20
2022-12-15T15:13:46.980Z,-3.30
2022-12-15T15:16:18.804Z,-3.40
2022-12-15T15:18:51.138Z,-3.40
2022-12-15T15:21:23.240Z,-3.50
2022-12-15T15:24:04.131Z,-3.70
2022-12-15T15:26:31.387Z,-3.80
2022-12-15T15:28:58.744Z,-3.90
2022-12-15T15:31:25.459Z,-3.90
2022-12-15T15:33:52.803Z,-3.90
2022-12-15T15:36:19.653Z,-3.90
2022-12-15T15:38:46.881Z,-4.00
2022-12-15T15:41:18.255Z,-4.00
2022-12-15T15:43:47.671Z,-4.10
2022-12-15T15:46:22.095Z,-4.10
2022-12-15T15:48:58.274Z,-4.10
2022-12-15T15:51:26.407Z,-4.20
2022-12-15T15:53:54.973Z,-4.20
2022-12-15T15:56:21.763Z,-4.20
2022-12-15T15:58:48.381Z,-4.30
2022-12-15T16:01:15.054Z,-4.40
2022-12-15T16:03:42.039Z,-4.40
2022-12-15T16:06:19.926Z,-4.40
2022-12-15T16:08:53.814Z,-4.50
2022-12-15T16:11:26.004Z,-4.50
2022-12-15T16:13:52.676Z,-4.40
2022-12-15T16:16:22.357Z,-4.40
2022-12-15T16:18:49.221Z,-4.40
2022-12-15T16:21:17.797Z,-4.40
2022-12-15T16:23:46.933Z,-4.50
2022-12-15T16:26:25.529Z,-4.50
2022-12-15T16:28:54.234Z,-4.60
2022-12-15T16:31:42.064Z,-4.60
2022-12-15T16:34:08.992Z,-4.70
2022-12-15T16:36:35.955Z,-4.70
2022-12-15T16:39:03.415Z,-4.80
2022-12-15T16:41:30.058Z,-4.80
2022-12-15T16:43:56.770Z,-4.80
2022-12-15T16:46:23.452Z,-4.80
2022-12-15T16:48:50.203Z,-4.70
2022-12-15T16:51:39.453Z,-4.80
2022-12-15T16:54:06.966Z,-4.70
2022-12-15T16:56:33.691Z,-4.70
2022-12-15T16:59:31.349Z,-4.70
2022-12-15T17:01:48.117Z,-4.60
2022-12-15T17:04:16.548Z,-4.60
2022-12-15T17:06:43.485Z,-4.60
2022-12-15T17:09:22.816Z,-4.60
2022-12-15T17:11:50.317Z,-4.60
2022-12-15T17:14:19.268Z,-4.60
2022-12-15T17:16:46.001Z,-4.70
2022-12-15T17:19:17.658Z,-4.70
2022-12-15T17:21:53.250Z,-4.70
2022-12-15T17:24:22.133Z,-4.60
2022-12-15T17:26:49.116Z,-4.60
2022-12-15T17:29:19.078Z,-4.60
2022-12-15T17:31:46.181Z,-4.60
2022-12-15T17:34:27.249Z,-4.60
2022-12-15T17:36:54.637Z,-4.60
2022-12-15T17:39:22.456Z,-4.60
2022-12-15T17:42:00.050Z,-4.60
2022-12-15T17:44:33.650Z,-4.60
2022-12-15T17:47:02.345Z,-4.60
2022-12-15T17:49:35.112Z,-4.70
2022-12-15T17:52:06.484Z,-4.80
2022-12-15T17:54:33.938Z,-4.90
2022-12-15T17:57:00.499Z,-4.90
2022-12-15T17:59:27.190Z,-4.90
2022-12-15T18:01:57.205Z,-4.90
2022-12-15T18:04:24.287Z,-4.90
2022-12-15T18:06:51.165Z,-4.90
2022-12-15T18:09:20.908Z,-4.90
2022-12-15T18:11:47.723Z,-4.90
2022-12-15T18:14:17.281Z,-5.00
2022-12-15T18:16:45.098Z,-5.00
2022-12-15T18:19:12.395Z,-5.00
2022-12-15T18:21:39.199Z,-5.10
2022-12-15T18:24:17.011Z,-5.20
2022-12-15T18:26:43.848Z,-5.20
2022-12-15T18:29:17.700Z,-5.20
2022-12-15T18:31:46.941Z,-5.20
2022-12-15T18:34:17.410Z,-5.20
2022-12-15T18:36:44.626Z,-5.20
2022-12-15T18:39:26.192Z,-5.20
2022-12-15T18:41:54.728Z,-5.10
2022-12-15T18:44:26.945Z,-5.20
2022-12-15T18:46:55.031Z,-5.20
2022-12-15T18:49:22.895Z,-5.20
2022-12-15T18:51:50.169Z,-5.30
2022-12-15T18:54:20.023Z,-5.30
2022-12-15T18:56:46.677Z,-5.30
2022-12-15T18:59:15.907Z,-5.30
2022-12-15T19:01:44.320Z,-5.30
2022-12-15T19:04:11.161Z,-5.20
2022-12-15T19:06:39.776Z,-5.20
2022-12-15T19:09:27.084Z,-5.10
2022-12-15T19:12:12.257Z,-5.20
2022-12-15T19:14:42.641Z,-5.20
2022-12-15T19:17:32.958Z,-5.30
2022-12-15T19:20:18.289Z,-5.30
2022-12-15T19:22:46.741Z,-5.30
2022-12-15T19:25:25.026Z,-5.30
2022-12-15T19:27:58.282Z,-5.40
2022-12-15T19:30:29.979Z,-5.40
2022-12-15T19:32:56.985Z,-5.50
2022-12-15T19:35:24.899Z,-5.50
2022-12-15T19:37:54.976Z,-5.60
2022-12-15T19:40:27.559Z,-5.70
2022-12-15T19:42:55.452Z,-5.70
2022-12-15T19:45:24.833Z,-5.70
2022-12-15T19:47:51.602Z,-5.80
2022-12-15T19:50:24.474Z,-5.80
2022-12-15T19:52:56.232Z,-5.80
2022-12-15T19:55:28.327Z,-5.80
2022-12-15T19:57:55.005Z,-5.90
2022-12-15T20:00:22.677Z,-6.00
2022-12-15T20:02:51.413Z,-6.10
2022-12-15T20:05:19.468Z,-6.10
2022-12-15T20:07:47.209Z,-6.10
2022-12-15T20:10:29.549Z,-6.00
2022-12-15T20:12:59.030Z,-6.00
2022-12-15T20:15:30.782Z,-5.90
2022-12-15T20:17:57.868Z,-5.90
2022-12-15T20:20:27.586Z,-5.90
2022-12-15T20:22:57.236Z,-5.90
2022-12-15T20:25:28.486Z,-5.90
2022-12-15T20:27:55.461Z,-5.90
2022-12-15T20:30:25.788Z,-5.90
2022-12-15T20:32:52.984Z,-5.90
2022-12-15T20:35:21.759Z,-5.80
2022-12-15T20:37:48.736Z,-5.90
2022-12-15T20:40:23.935Z,-5.90
2022-12-15T20:42:52.377Z,-5.90
2022-12-15T20:45:24.020Z,-6.00
2022-12-15T20:47:52.976Z,-6.10
2022-12-15T20:50:41.990Z,-6.20
2022-12-15T20:53:19.518Z,-6.20
2022-12-15T20:55:47.963Z,-6.10
2022-12-15T20:58:15.676Z,-6.10
2022-12-15T21:00:43.150Z,-6.10
2022-12-15T21:03:30.520Z,-6.00
2022-12-15T21:05:59.381Z,-6.10
2022-12-15T21:08:31.155Z,-6.10
2022-12-15T21:11:21.152Z,-6.20
2022-12-15T21:13:49.180Z,-6.20
2022-12-15T21:16:21.531Z,-6.20
2022-12-15T21:21:40.685Z,-6.20
2022-12-15T21:24:20.142Z,-6.30
2022-12-15T21:26:47.010Z,-6.40
2022-12-15T21:29:19.165Z,-6.30
2022-12-15T21:31:46.419Z,-6.30
2022-12-15T21:34:13.815Z,-6.20
2022-12-15T21:36:43.286Z,-6.20
2022-12-15T21:39:17.885Z,-6.20
2022-12-15T21:41:44.568Z,-6.10
2022-12-15T21:44:15.444Z,-6.20
2022-12-15T21:46:42.156Z,-6.20
2022-12-15T21:49:18.351Z,-6.20
2022-12-15T21:51:57.181Z,-6.30
2022-12-15T21:54:32.312Z,-6.30
2022-12-15T21:56:59.884Z,-6.40
2022-12-15T21:59:29.590Z,-6.60
2022-12-15T22:01:56.512Z,-6.70
2022-12-15T22:04:29.207Z,-6.70
2022-12-15T22:06:56.048Z,-6.70
2022-12-15T22:09:22.742Z,-6.80
2022-12-15T22:11:53.677Z,-6.90
2022-12-15T22:14:34.001Z,-6.80
2022-12-15T22:17:10.559Z,-6.70
2022-12-15T22:19:37.111Z,-6.70
2022-12-15T22:22:03.671Z,-6.70
2022-12-15T22:24:30.865Z,-6.80
2022-12-15T22:26:57.528Z,-6.90
2022-12-15T22:29:24.974Z,-6.80
2022-12-15T22:31:52.069Z,-6.90
2022-12-15T22:34:26.163Z,-6.80
2022-12-15T22:36:52.800Z,-6.70
2022-12-15T22:39:21.616Z,-6.70
2022-12-15T22:41:50.672Z,-6.70
2022-12-15T22:44:19.511Z,-6.70
2022-12-15T22:46:47.038Z,-6.70
2022-12-15T22:49:20.286Z,-6.80
2022-12-15T22:51:47.194Z,-6.80
2022-12-15T22:54:17.965Z,-6.80
2022-12-15T22:56:45.782Z,-6.80
2022-12-15T22:59:18.502Z,-6.80
2022-12-15T23:01:46.125Z,-6.70
2022-12-15T23:04:13.047Z,-6.80
2022-12-15T23:06:40.409Z,-6.80
2022-12-15T23:09:07.223Z,-6.80
2022-12-15T23:11:41.274Z,-6.80
2022-12-15T23:14:16.472Z,-6.80
2022-12-15T23:16:45.511Z,-7.00
2022-12-15T23:19:23.626Z,-7.00
2022-12-15T23:21:51.113Z,-7.10
2022-12-15T23:24:18.540Z,-7.10
2022-12-15T23:26:45.130Z,-7.20
2022-12-15T23:29:11.712Z,-7.30
2022-12-15T23:31:38.364Z,-7.40
2022-12-15T23:34:05.193Z,-7.40
2022-12-15T23:36:31.818Z,-7.50
2022-12-15T23:38:58.467Z,-7.50
2022-12-15T23:41:25.220Z,-7.60
2022-12-15T23:43:51.887Z,-7.50
2022-12-15T23:46:18.796Z,-7.60
2022-12-15T23:48:45.578Z,-7.60
2022-12-15T23:51:13.599Z,-7.60
2022-12-15T23:53:41.602Z,-7.60
2022-12-15T23:56:16.454Z,-7.70
2022-12-15T23:58:45.016Z,-7.70
